sensor_id;sensor_type;location;lat;lon;timestamp;P1;durP1;ratioP1;P2;durP2;ratioP2
5827;SDS011;42583;50.240;8.444;2023-02-01T00:05:20;436.40;;;15.32;;
5827;SDS011;42583;50.240;8.444;2023-02-01T00:20:21;650.20;;;20.15;;
5827;SDS011;42583;50.240;8.444;2023-02-01T00:35:21;514.08;;;17.27;;
5827;SDS011;42583;50.240;8.444;2023-02-01T00:50:22;51.42;;;8.20;;
5827;SDS011;42583;50.240;8.444;2023-02-01T01:05:22;77.78;;;8.00;;
5827;SDS011;42583;50.240;8.444;2023-02-01T01:20:23;17.42;;;7.15;;
5827;SDS011;42583;50.240;8.444;2023-02-01T01:35:24;18.40;;;7.50;;
5827;SDS011;42583;50.240;8.444;2023-02-01T01:50:28;311.02;;;13.75;;
5827;SDS011;42583;50.240;8.444;2023-02-01T02:05:31;12.88;;;7.22;;
5827;SDS011;42583;50.240;8.444;2023-02-01T02:36:17;13.82;;;5.80;;
5827;SDS011;42583;50.240;8.444;2023-02-01T02:51:43;11.68;;;4.22;;
5827;SDS011;42583;50.240;8.444;2023-02-01T03:07:11;17.33;;;4.53;;
5827;SDS011;42583;50.240;8.444;2023-02-01T03:22:35;11.15;;;4.55;;
5827;SDS011;42583;50.240;8.444;2023-02-01T03:37:38;17.08;;;3.92;;
5827;SDS011;42583;50.240;8.444;2023-02-01T03:52:47;20.65;;;4.00;;
5827;SDS011;42583;50.240;8.444;2023-02-01T04:07:52;18.80;;;3.88;;
5827;SDS011;42583;50.240;8.444;2023-02-01T04:22:54;18.23;;;4.88;;
5827;SDS011;42583;50.240;8.444;2023-02-01T04:37:54;14.75;;;3.50;;
5827;SDS011;42583;50.240;8.444;2023-02-01T04:52:55;16.58;;;3.30;;
5827;SDS011;42583;50.240;8.444;2023-02-01T05:07:55;11.05;;;2.72;;
5827;SDS011;42583;50.240;8.444;2023-02-01T05:22:56;18.30;;;3.10;;
5827;SDS011;42583;50.240;8.444;2023-02-01T05:37:56;19.88;;;2.90;;
5827;SDS011;42583;50.240;8.444;2023-02-01T05:52:57;13.27;;;2.88;;
5827;SDS011;42583;50.240;8.444;2023-02-01T06:07:57;18.67;;;3.00;;
5827;SDS011;42583;50.240;8.444;2023-02-01T06:22:59;15.52;;;3.58;;
5827;SDS011;42583;50.240;8.444;2023-02-01T06:37:59;19.92;;;3.55;;
5827;SDS011;42583;50.240;8.444;2023-02-01T06:53:00;17.27;;;3.10;;
5827;SDS011;42583;50.240;8.444;2023-02-01T07:08:00;15.70;;;2.70;;
5827;SDS011;42583;50.240;8.444;2023-02-01T07:23:01;14.52;;;2.60;;
5827;SDS011;42583;50.240;8.444;2023-02-01T07:38:01;12.70;;;2.40;;
5827;SDS011;42583;50.240;8.444;2023-02-01T07:53:02;13.60;;;2.45;;
5827;SDS011;42583;50.240;8.444;2023-02-01T08:08:02;19.90;;;3.20;;
5827;SDS011;42583;50.240;8.444;2023-02-01T08:23:07;15.63;;;3.03;;
5827;SDS011;42583;50.240;8.444;2023-02-01T08:38:08;15.53;;;2.70;;
5827;SDS011;42583;50.240;8.444;2023-02-01T08:53:09;13.18;;;2.50;;
5827;SDS011;42583;50.240;8.444;2023-02-01T09:08:09;21.02;;;3.03;;
5827;SDS011;42583;50.240;8.444;2023-02-01T09:23:12;14.18;;;2.60;;
5827;SDS011;42583;50.240;8.444;2023-02-01T09:38:12;12.93;;;2.92;;
5827;SDS011;42583;50.240;8.444;2023-02-01T09:53:19;15.07;;;2.90;;
5827;SDS011;42583;50.240;8.444;2023-02-01T10:08:33;16.48;;;3.30;;
5827;SDS011;42583;50.240;8.444;2023-02-01T10:39:05;11.65;;;3.08;;
5827;SDS011;42583;50.240;8.444;2023-02-01T10:54:17;10.95;;;3.10;;
5827;SDS011;42583;50.240;8.444;2023-02-01T11:09:31;12.05;;;2.50;;
5827;SDS011;42583;50.240;8.444;2023-02-01T11:24:33;10.57;;;2.53;;
5827;SDS011;42583;50.240;8.444;2023-02-01T11:39:38;14.43;;;2.60;;
5827;SDS011;42583;50.240;8.444;2023-02-01T11:54:44;12.68;;;3.63;;
5827;SDS011;42583;50.240;8.444;2023-02-01T12:09:51;18.08;;;3.10;;
5827;SDS011;42583;50.240;8.444;2023-02-01T12:25:05;14.73;;;2.63;;
5827;SDS011;42583;50.240;8.444;2023-02-01T12:40:48;12.70;;;2.58;;
5827;SDS011;42583;50.240;8.444;2023-02-01T12:55:58;13.40;;;2.70;;
5827;SDS011;42583;50.240;8.444;2023-02-01T13:11:07;17.00;;;2.70;;
5827;SDS011;42583;50.240;8.444;2023-02-01T13:26:18;11.60;;;2.23;;
5827;SDS011;42583;50.240;8.444;2023-02-01T13:56:41;14.07;;;2.58;;
5827;SDS011;42583;50.240;8.444;2023-02-01T14:11:45;13.57;;;2.28;;
5827;SDS011;42583;50.240;8.444;2023-02-01T14:26:53;11.02;;;2.30;;
5827;SDS011;42583;50.240;8.444;2023-02-01T14:41:57;10.10;;;2.42;;
5827;SDS011;42583;50.240;8.444;2023-02-01T14:57:01;11.23;;;2.43;;
5827;SDS011;42583;50.240;8.444;2023-02-01T15:12:04;10.77;;;2.30;;
5827;SDS011;42583;50.240;8.444;2023-02-01T15:27:10;14.98;;;2.72;;
5827;SDS011;42583;50.240;8.444;2023-02-01T15:42:12;16.45;;;2.67;;
5827;SDS011;42583;50.240;8.444;2023-02-01T15:57:23;12.32;;;2.42;;
5827;SDS011;42583;50.240;8.444;2023-02-01T16:12:45;16.65;;;2.47;;
5827;SDS011;42583;50.240;8.444;2023-02-01T16:27:46;16.13;;;2.53;;
5827;SDS011;42583;50.240;8.444;2023-02-01T16:42:49;12.85;;;2.70;;
5827;SDS011;42583;50.240;8.444;2023-02-01T16:57:51;15.18;;;2.50;;
5827;SDS011;42583;50.240;8.444;2023-02-01T17:12:52;13.07;;;2.50;;
5827;SDS011;42583;50.240;8.444;2023-02-01T17:27:53;12.80;;;3.10;;
5827;SDS011;42583;50.240;8.444;2023-02-01T17:42:53;9.75;;;2.03;;
5827;SDS011;42583;50.240;8.444;2023-02-01T17:57:56;12.93;;;2.45;;
5827;SDS011;42583;50.240;8.444;2023-02-01T18:12:57;10.10;;;2.53;;
5827;SDS011;42583;50.240;8.444;2023-02-01T18:27:58;58.55;;;3.85;;
5827;SDS011;42583;50.240;8.444;2023-02-01T18:42:58;132.00;;;5.28;;
5827;SDS011;42583;50.240;8.444;2023-02-01T18:58:00;126.10;;;4.68;;
5827;SDS011;42583;50.240;8.444;2023-02-01T19:13:02;396.90;;;10.17;;
5827;SDS011;42583;50.240;8.444;2023-02-01T19:28:03;11.27;;;3.10;;
5827;SDS011;42583;50.240;8.444;2023-02-01T19:43:04;6.07;;;3.00;;
5827;SDS011;42583;50.240;8.444;2023-02-01T19:58:05;8.02;;;2.85;;
5827;SDS011;42583;50.240;8.444;2023-02-01T20:13:05;14.00;;;3.20;;
5827;SDS011;42583;50.240;8.444;2023-02-01T20:28:06;11.73;;;3.30;;
5827;SDS011;42583;50.240;8.444;2023-02-01T20:43:06;14.88;;;3.33;;
5827;SDS011;42583;50.240;8.444;2023-02-01T20:58:07;13.73;;;3.15;;
5827;SDS011;42583;50.240;8.444;2023-02-01T21:13:08;13.48;;;2.83;;
5827;SDS011;42583;50.240;8.444;2023-02-01T21:28:09;11.13;;;2.42;;
